Terminal Aerodrome Forecast
Issued by NWS

Home | Current Version | Previous Version | Text Only | Print | Product List | Glossary Off
Versions: 1 2 3 4 5 6 7 8 9 10 11 12 13 14 15 16 17 18 19 20 21 22 23 24 25 26 27 28 29 30 31 32 33 34 35 36 37 38
000 FTUS41 KBOX 231125 TAFACK TAF KACK 231125Z 2312/2412 03010G18KT P6SM SCT030 SCT050 FM231400 04012KT P6SM BKN050 FM232000 04015KT P6SM SCT020 FM240000 04011KT P6SM BKN250 FM240600 03007KT P6SM SCT250=

USA.gov is the U.S. government's official web portal to all federal, state and local government web resources and services.